This is the latest recevied weather packets stored in our database for station/object OM8AKX-12. If no packets are shown the sender has not sent any weather packets the latest 10 day(s).
| Time | Temp. | Humidity | Pressure | Rain* | Wind** | Luminosity | Snow |
|---|---|---|---|---|---|---|---|
| 1787592960 | 21.67° C | 42% | 1014.4 hPa | - | - | - | - |
| 1787592060 | 21.67° C | 40% | 1014.3 hPa | - | - | - | - |
| 1787591160 | 22.22° C | 38% | 1014.2 hPa | - | - | - | - |
| 1787589359 | 23.33° C | 33% | 1014.1 hPa | - | - | - | - |
| 1787588459 | 24.44° C | 29% | 1013.9 hPa | - | - | - | - |
| 1787587559 | 26.11° C | 26% | 1013.8 hPa | - | - | - | - |
| 1787586659 | 25.56° C | 26% | 1013.9 hPa | - | - | - | - |
| 1787584859 | 26.67° C | 24% | 1013.9 hPa | - | - | - | - |
| 1787583959 | 28.89° C | 22% | 1013.9 hPa | - | - | - | - |
| 1787583060 | 31.67° C | 22% | 1013.9 hPa | - | - | - | - |
| 1787582159 | 30° C | 22% | 1014 hPa | - | - | - | - |
| 1787581259 | 28.89° C | 25% | 1013.9 hPa | - | - | - | - |
| 1787580359 | 30.56° C | 21% | 1013.9 hPa | - | - | - | - |
| 1787578559 | 31.11° C | 21% | 1014 hPa | - | - | - | - |
| 1787577659 | 29.44° C | 22% | 1014.2 hPa | - | - | - | - |
| 1787576759 | 29.44° C | 22% | 1014.3 hPa | - | - | - | - |
| 1787575859 | 31.11° C | 22% | 1014.4 hPa | - | - | - | - |
| 1787574958 | 28.89° C | 23% | 1014.4 hPa | - | - | - | - |
| 1787574058 | 30° C | 21% | 1014.6 hPa | - | - | - | - |
| 1787573158 | 29.44° C | 23% | 1014.8 hPa | - | - | - | - |
| 1787572258 | 27.78° C | 24% | 1014.9 hPa | - | - | - | - |
| 1787571358 | 27.22° C | 25% | 1015 hPa | - | - | - | - |
| 1787570458 | 26.67° C | 28% | 1015.2 hPa | - | - | - | - |
| 1787569558 | 25° C | 29% | 1015.5 hPa | - | - | - | - |
| 1787568658 | 25.56° C | 28% | 1015.5 hPa | - | - | - | - |
* Rain since midnight (hover to see other rain measurements)
** Current wind speed in m/s (hover to see current wind gust speed)